sensor_id;sensor_type;location;lat;lon;timestamp;P1;durP1;ratioP1;P2;durP2;ratioP2
35646;SDS011;28680;45.642;13.756;2023-04-24T00:01:51;9.55;;;3.75;;
35646;SDS011;28680;45.642;13.756;2023-04-24T00:04:17;7.05;;;3.80;;
35646;SDS011;28680;45.642;13.756;2023-04-24T00:06:43;5.50;;;3.45;;
35646;SDS011;28680;45.642;13.756;2023-04-24T00:09:14;6.95;;;3.35;;
35646;SDS011;28680;45.642;13.756;2023-04-24T00:11:40;6.82;;;3.72;;
35646;SDS011;28680;45.642;13.756;2023-04-24T00:14:06;7.85;;;4.05;;
35646;SDS011;28680;45.642;13.756;2023-04-24T00:16:32;7.22;;;3.95;;
35646;SDS011;28680;45.642;13.756;2023-04-24T00:18:58;6.20;;;3.85;;
35646;SDS011;28680;45.642;13.756;2023-04-24T00:21:25;8.05;;;4.03;;
35646;SDS011;28680;45.642;13.756;2023-04-24T00:23:51;6.78;;;3.97;;
35646;SDS011;28680;45.642;13.756;2023-04-24T00:26:18;7.82;;;4.18;;
35646;SDS011;28680;45.642;13.756;2023-04-24T00:28:44;7.07;;;3.40;;
35646;SDS011;28680;45.642;13.756;2023-04-24T00:31:10;8.07;;;4.28;;
35646;SDS011;28680;45.642;13.756;2023-04-24T00:33:35;8.85;;;4.35;;
35646;SDS011;28680;45.642;13.756;2023-04-24T00:36:01;7.28;;;4.13;;
35646;SDS011;28680;45.642;13.756;2023-04-24T00:38:27;7.70;;;3.88;;
35646;SDS011;28680;45.642;13.756;2023-04-24T00:40:53;8.52;;;4.03;;
35646;SDS011;28680;45.642;13.756;2023-04-24T00:43:19;9.80;;;4.38;;
35646;SDS011;28680;45.642;13.756;2023-04-24T00:45:45;9.55;;;4.15;;
35646;SDS011;28680;45.642;13.756;2023-04-24T00:48:12;6.75;;;4.65;;
35646;SDS011;28680;45.642;13.756;2023-04-24T00:50:38;9.05;;;4.50;;
35646;SDS011;28680;45.642;13.756;2023-04-24T00:53:04;8.75;;;5.10;;
35646;SDS011;28680;45.642;13.756;2023-04-24T00:55:31;7.28;;;4.63;;
35646;SDS011;28680;45.642;13.756;2023-04-24T00:57:57;7.38;;;4.28;;
35646;SDS011;28680;45.642;13.756;2023-04-24T01:00:23;6.30;;;4.03;;
35646;SDS011;28680;45.642;13.756;2023-04-24T01:02:50;8.30;;;4.40;;
35646;SDS011;28680;45.642;13.756;2023-04-24T01:05:18;10.55;;;4.50;;
35646;SDS011;28680;45.642;13.756;2023-04-24T01:07:44;9.80;;;4.55;;
35646;SDS011;28680;45.642;13.756;2023-04-24T01:10:13;8.77;;;4.22;;
35646;SDS011;28680;45.642;13.756;2023-04-24T01:12:40;10.43;;;3.95;;
35646;SDS011;28680;45.642;13.756;2023-04-24T01:15:06;6.32;;;4.38;;
35646;SDS011;28680;45.642;13.756;2023-04-24T01:17:33;8.52;;;4.55;;
35646;SDS011;28680;45.642;13.756;2023-04-24T01:19:59;6.68;;;4.57;;
35646;SDS011;28680;45.642;13.756;2023-04-24T01:22:26;9.35;;;4.25;;
35646;SDS011;28680;45.642;13.756;2023-04-24T01:24:52;7.40;;;4.50;;
35646;SDS011;28680;45.642;13.756;2023-04-24T01:27:19;7.63;;;4.28;;
35646;SDS011;28680;45.642;13.756;2023-04-24T01:29:45;9.75;;;4.82;;
35646;SDS011;28680;45.642;13.756;2023-04-24T01:32:16;6.68;;;3.85;;
35646;SDS011;28680;45.642;13.756;2023-04-24T01:34:43;6.90;;;4.20;;
35646;SDS011;28680;45.642;13.756;2023-04-24T01:37:10;12.55;;;4.60;;
35646;SDS011;28680;45.642;13.756;2023-04-24T01:39:36;7.97;;;3.85;;
35646;SDS011;28680;45.642;13.756;2023-04-24T01:42:01;8.02;;;4.70;;
35646;SDS011;28680;45.642;13.756;2023-04-24T01:44:28;10.60;;;4.80;;
35646;SDS011;28680;45.642;13.756;2023-04-24T01:46:54;10.20;;;4.80;;
35646;SDS011;28680;45.642;13.756;2023-04-24T01:49:20;7.28;;;4.55;;
35646;SDS011;28680;45.642;13.756;2023-04-24T01:51:47;13.35;;;5.40;;
35646;SDS011;28680;45.642;13.756;2023-04-24T01:54:13;6.93;;;4.20;;
35646;SDS011;28680;45.642;13.756;2023-04-24T01:56:42;8.25;;;4.45;;
35646;SDS011;28680;45.642;13.756;2023-04-24T01:59:11;6.50;;;4.30;;
35646;SDS011;28680;45.642;13.756;2023-04-24T02:01:37;10.43;;;4.70;;
35646;SDS011;28680;45.642;13.756;2023-04-24T02:04:05;7.07;;;4.05;;
35646;SDS011;28680;45.642;13.756;2023-04-24T02:06:32;11.68;;;4.95;;
35646;SDS011;28680;45.642;13.756;2023-04-24T02:08:58;7.82;;;4.78;;
35646;SDS011;28680;45.642;13.756;2023-04-24T02:11:25;8.38;;;4.70;;
35646;SDS011;28680;45.642;13.756;2023-04-24T02:13:51;9.77;;;4.75;;
35646;SDS011;28680;45.642;13.756;2023-04-24T02:16:18;8.95;;;5.20;;
35646;SDS011;28680;45.642;13.756;2023-04-24T02:18:44;9.13;;;4.72;;
35646;SDS011;28680;45.642;13.756;2023-04-24T02:21:11;7.85;;;4.65;;
35646;SDS011;28680;45.642;13.756;2023-04-24T02:23:37;8.63;;;4.78;;
35646;SDS011;28680;45.642;13.756;2023-04-24T02:26:03;12.40;;;5.25;;
35646;SDS011;28680;45.642;13.756;2023-04-24T02:28:29;8.63;;;4.85;;
35646;SDS011;28680;45.642;13.756;2023-04-24T02:30:54;9.32;;;4.88;;
35646;SDS011;28680;45.642;13.756;2023-04-24T02:33:20;8.57;;;4.80;;
35646;SDS011;28680;45.642;13.756;2023-04-24T02:35:46;7.80;;;4.18;;
35646;SDS011;28680;45.642;13.756;2023-04-24T02:38:12;9.63;;;4.20;;
35646;SDS011;28680;45.642;13.756;2023-04-24T02:40:38;8.32;;;4.57;;
35646;SDS011;28680;45.642;13.756;2023-04-24T02:43:04;12.98;;;5.22;;
35646;SDS011;28680;45.642;13.756;2023-04-24T02:45:30;9.40;;;4.30;;
35646;SDS011;28680;45.642;13.756;2023-04-24T02:47:56;8.27;;;4.07;;
35646;SDS011;28680;45.642;13.756;2023-04-24T02:50:21;6.57;;;4.43;;
35646;SDS011;28680;45.642;13.756;2023-04-24T02:52:47;7.63;;;4.82;;
35646;SDS011;28680;45.642;13.756;2023-04-24T02:55:13;9.70;;;4.70;;
35646;SDS011;28680;45.642;13.756;2023-04-24T02:57:39;9.63;;;5.15;;
35646;SDS011;28680;45.642;13.756;2023-04-24T03:00:05;9.15;;;5.03;;
35646;SDS011;28680;45.642;13.756;2023-04-24T03:02:32;9.77;;;4.68;;
35646;SDS011;28680;45.642;13.756;2023-04-24T03:04:58;7.35;;;4.50;;
35646;SDS011;28680;45.642;13.756;2023-04-24T03:07:24;9.02;;;4.70;;
35646;SDS011;28680;45.642;13.756;2023-04-24T03:09:50;11.43;;;4.30;;
35646;SDS011;28680;45.642;13.756;2023-04-24T03:12:16;7.63;;;4.13;;
35646;SDS011;28680;45.642;13.756;2023-04-24T03:14:45;10.52;;;4.97;;
35646;SDS011;28680;45.642;13.756;2023-04-24T03:17:11;7.18;;;3.85;;
35646;SDS011;28680;45.642;13.756;2023-04-24T03:19:37;7.78;;;4.45;;
35646;SDS011;28680;45.642;13.756;2023-04-24T03:22:03;7.18;;;4.20;;
35646;SDS011;28680;45.642;13.756;2023-04-24T03:24:29;9.50;;;4.35;;
35646;SDS011;28680;45.642;13.756;2023-04-24T03:26:55;6.63;;;4.43;;
35646;SDS011;28680;45.642;13.756;2023-04-24T03:29:21;6.75;;;4.00;;
35646;SDS011;28680;45.642;13.756;2023-04-24T03:31:47;7.05;;;4.60;;
35646;SDS011;28680;45.642;13.756;2023-04-24T03:34:13;10.55;;;5.03;;
35646;SDS011;28680;45.642;13.756;2023-04-24T03:36:39;9.35;;;4.43;;
35646;SDS011;28680;45.642;13.756;2023-04-24T03:39:05;9.60;;;5.65;;
35646;SDS011;28680;45.642;13.756;2023-04-24T03:41:31;10.30;;;5.13;;
35646;SDS011;28680;45.642;13.756;2023-04-24T03:43:57;7.30;;;4.90;;
35646;SDS011;28680;45.642;13.756;2023-04-24T03:46:23;9.77;;;5.05;;
35646;SDS011;28680;45.642;13.756;2023-04-24T03:48:49;7.55;;;4.72;;
35646;SDS011;28680;45.642;13.756;2023-04-24T03:51:14;9.65;;;5.00;;
35646;SDS011;28680;45.642;13.756;2023-04-24T03:53:40;9.75;;;4.78;;
35646;SDS011;28680;45.642;13.756;2023-04-24T03:56:06;9.75;;;4.88;;
35646;SDS011;28680;45.642;13.756;2023-04-24T03:58:32;10.93;;;5.03;;
35646;SDS011;28680;45.642;13.756;2023-04-24T04:00:58;11.18;;;4.85;;
35646;SDS011;28680;45.642;13.756;2023-04-24T04:03:23;10.18;;;5.47;;
35646;SDS011;28680;45.642;13.756;2023-04-24T04:05:50;14.13;;;5.25;;
35646;SDS011;28680;45.642;13.756;2023-04-24T04:08:16;9.60;;;4.82;;
35646;SDS011;28680;45.642;13.756;2023-04-24T04:10:42;9.20;;;4.85;;
35646;SDS011;28680;45.642;13.756;2023-04-24T04:13:08;10.18;;;4.57;;
35646;SDS011;28680;45.642;13.756;2023-04-24T04:15:34;9.48;;;5.00;;
35646;SDS011;28680;45.642;13.756;2023-04-24T04:18:00;9.82;;;4.38;;
35646;SDS011;28680;45.642;13.756;2023-04-24T04:20:26;12.38;;;4.95;;
35646;SDS011;28680;45.642;13.756;2023-04-24T04:22:52;10.80;;;5.22;;
35646;SDS011;28680;45.642;13.756;2023-04-24T04:25:18;9.40;;;4.40;;
35646;SDS011;28680;45.642;13.756;2023-04-24T04:27:44;6.68;;;4.10;;
35646;SDS011;28680;45.642;13.756;2023-04-24T04:30:12;7.80;;;4.35;;
35646;SDS011;28680;45.642;13.756;2023-04-24T04:32:39;11.38;;;4.60;;
35646;SDS011;28680;45.642;13.756;2023-04-24T04:35:04;9.02;;;4.63;;
35646;SDS011;28680;45.642;13.756;2023-04-24T04:37:33;10.23;;;4.95;;
35646;SDS011;28680;45.642;13.756;2023-04-24T04:39:59;9.10;;;5.00;;
35646;SDS011;28680;45.642;13.756;2023-04-24T04:42:26;9.60;;;4.57;;
35646;SDS011;28680;45.642;13.756;2023-04-24T04:44:53;11.80;;;4.82;;
35646;SDS011;28680;45.642;13.756;2023-04-24T04:47:20;12.57;;;5.05;;
35646;SDS011;28680;45.642;13.756;2023-04-24T04:49:50;9.30;;;5.45;;
35646;SDS011;28680;45.642;13.756;2023-04-24T04:52:17;5.95;;;4.20;;
35646;SDS011;28680;45.642;13.756;2023-04-24T04:54:43;10.18;;;4.65;;
35646;SDS011;28680;45.642;13.756;2023-04-24T04:57:10;10.93;;;4.78;;
35646;SDS011;28680;45.642;13.756;2023-04-24T04:59:35;7.82;;;4.75;;
35646;SDS011;28680;45.642;13.756;2023-04-24T05:02:02;8.68;;;4.57;;
35646;SDS011;28680;45.642;13.756;2023-04-24T05:04:28;9.10;;;5.07;;
35646;SDS011;28680;45.642;13.756;2023-04-24T05:06:53;7.68;;;4.35;;
35646;SDS011;28680;45.642;13.756;2023-04-24T05:09:19;10.57;;;4.50;;
35646;SDS011;28680;45.642;13.756;2023-04-24T05:11:46;8.48;;;4.57;;
35646;SDS011;28680;45.642;13.756;2023-04-24T05:14:11;13.73;;;4.85;;
35646;SDS011;28680;45.642;13.756;2023-04-24T05:16:37;9.30;;;4.53;;
35646;SDS011;28680;45.642;13.756;2023-04-24T05:19:05;9.98;;;4.13;;
35646;SDS011;28680;45.642;13.756;2023-04-24T05:21:31;8.73;;;4.63;;
35646;SDS011;28680;45.642;13.756;2023-04-24T05:23:57;9.90;;;4.40;;
35646;SDS011;28680;45.642;13.756;2023-04-24T05:26:22;9.45;;;4.70;;
35646;SDS011;28680;45.642;13.756;2023-04-24T05:28:49;10.25;;;4.40;;
35646;SDS011;28680;45.642;13.756;2023-04-24T05:31:15;10.07;;;4.35;;
35646;SDS011;28680;45.642;13.756;2023-04-24T05:33:42;11.93;;;4.80;;
35646;SDS011;28680;45.642;13.756;2023-04-24T05:36:08;11.57;;;4.78;;
35646;SDS011;28680;45.642;13.756;2023-04-24T05:38:34;8.82;;;4.10;;
35646;SDS011;28680;45.642;13.756;2023-04-24T05:41:00;10.00;;;4.22;;
35646;SDS011;28680;45.642;13.756;2023-04-24T05:43:26;10.48;;;4.78;;
35646;SDS011;28680;45.642;13.756;2023-04-24T05:45:52;10.95;;;5.05;;
35646;SDS011;28680;45.642;13.756;2023-04-24T05:48:18;13.63;;;5.75;;
35646;SDS011;28680;45.642;13.756;2023-04-24T05:50:44;16.40;;;4.85;;
35646;SDS011;28680;45.642;13.756;2023-04-24T05:53:12;8.55;;;4.20;;
35646;SDS011;28680;45.642;13.756;2023-04-24T05:55:38;8.93;;;4.38;;
35646;SDS011;28680;45.642;13.756;2023-04-24T05:58:04;8.23;;;3.97;;
35646;SDS011;28680;45.642;13.756;2023-04-24T06:00:30;7.63;;;3.70;;
35646;SDS011;28680;45.642;13.756;2023-04-24T06:02:56;13.23;;;4.25;;
35646;SDS011;28680;45.642;13.756;2023-04-24T06:05:22;13.30;;;4.57;;
35646;SDS011;28680;45.642;13.756;2023-04-24T06:07:48;10.55;;;4.28;;
35646;SDS011;28680;45.642;13.756;2023-04-24T06:10:14;9.30;;;4.57;;
35646;SDS011;28680;45.642;13.756;2023-04-24T06:12:40;11.70;;;4.35;;
35646;SDS011;28680;45.642;13.756;2023-04-24T06:15:06;9.05;;;4.10;;
35646;SDS011;28680;45.642;13.756;2023-04-24T06:17:33;12.80;;;4.45;;
35646;SDS011;28680;45.642;13.756;2023-04-24T06:19:58;13.10;;;4.60;;
35646;SDS011;28680;45.642;13.756;2023-04-24T06:22:24;10.68;;;4.95;;
35646;SDS011;28680;45.642;13.756;2023-04-24T06:24:50;13.27;;;4.38;;
35646;SDS011;28680;45.642;13.756;2023-04-24T06:27:16;10.07;;;4.30;;
35646;SDS011;28680;45.642;13.756;2023-04-24T06:29:42;11.85;;;4.57;;
35646;SDS011;28680;45.642;13.756;2023-04-24T06:32:10;12.05;;;4.63;;
35646;SDS011;28680;45.642;13.756;2023-04-24T06:34:39;13.73;;;4.63;;
35646;SDS011;28680;45.642;13.756;2023-04-24T06:37:05;10.25;;;4.78;;
35646;SDS011;28680;45.642;13.756;2023-04-24T06:39:31;11.07;;;4.97;;
35646;SDS011;28680;45.642;13.756;2023-04-24T06:41:58;12.57;;;5.30;;
35646;SDS011;28680;45.642;13.756;2023-04-24T06:44:23;11.52;;;5.07;;
35646;SDS011;28680;45.642;13.756;2023-04-24T06:46:49;14.65;;;5.10;;
35646;SDS011;28680;45.642;13.756;2023-04-24T06:49:15;12.43;;;5.90;;
35646;SDS011;28680;45.642;13.756;2023-04-24T06:51:41;14.77;;;6.22;;
35646;SDS011;28680;45.642;13.756;2023-04-24T06:54:07;13.27;;;6.35;;
35646;SDS011;28680;45.642;13.756;2023-04-24T06:56:33;12.40;;;6.28;;
35646;SDS011;28680;45.642;13.756;2023-04-24T06:59:00;13.27;;;8.32;;
35646;SDS011;28680;45.642;13.756;2023-04-24T07:01:25;12.23;;;5.50;;
35646;SDS011;28680;45.642;13.756;2023-04-24T07:03:52;9.32;;;5.57;;
35646;SDS011;28680;45.642;13.756;2023-04-24T07:06:18;9.05;;;5.20;;
35646;SDS011;28680;45.642;13.756;2023-04-24T07:08:46;13.40;;;5.00;;
35646;SDS011;28680;45.642;13.756;2023-04-24T07:11:12;9.98;;;5.28;;
35646;SDS011;28680;45.642;13.756;2023-04-24T07:13:38;9.88;;;5.55;;
35646;SDS011;28680;45.642;13.756;2023-04-24T07:16:06;12.60;;;4.60;;
35646;SDS011;28680;45.642;13.756;2023-04-24T07:18:33;12.23;;;4.68;;
35646;SDS011;28680;45.642;13.756;2023-04-24T07:20:59;11.15;;;5.60;;
35646;SDS011;28680;45.642;13.756;2023-04-24T07:23:25;9.02;;;5.25;;
35646;SDS011;28680;45.642;13.756;2023-04-24T07:25:51;11.55;;;5.65;;
35646;SDS011;28680;45.642;13.756;2023-04-24T07:28:17;10.00;;;5.32;;
35646;SDS011;28680;45.642;13.756;2023-04-24T07:30:43;10.65;;;4.63;;
35646;SDS011;28680;45.642;13.756;2023-04-24T07:33:09;13.75;;;5.60;;
35646;SDS011;28680;45.642;13.756;2023-04-24T07:35:38;10.55;;;5.80;;
35646;SDS011;28680;45.642;13.756;2023-04-24T07:38:04;10.82;;;5.20;;
35646;SDS011;28680;45.642;13.756;2023-04-24T07:40:30;11.25;;;5.40;;
35646;SDS011;28680;45.642;13.756;2023-04-24T07:42:56;10.43;;;4.80;;
35646;SDS011;28680;45.642;13.756;2023-04-24T07:45:22;13.48;;;5.40;;
35646;SDS011;28680;45.642;13.756;2023-04-24T07:47:49;11.73;;;4.63;;
35646;SDS011;28680;45.642;13.756;2023-04-24T07:50:15;9.60;;;5.30;;
35646;SDS011;28680;45.642;13.756;2023-04-24T07:52:44;11.30;;;5.40;;
35646;SDS011;28680;45.642;13.756;2023-04-24T07:55:10;12.25;;;5.53;;
35646;SDS011;28680;45.642;13.756;2023-04-24T07:57:36;10.60;;;5.57;;
35646;SDS011;28680;45.642;13.756;2023-04-24T08:00:02;11.10;;;5.90;;
35646;SDS011;28680;45.642;13.756;2023-04-24T08:02:30;17.50;;;6.47;;
35646;SDS011;28680;45.642;13.756;2023-04-24T08:04:56;12.88;;;5.57;;
35646;SDS011;28680;45.642;13.756;2023-04-24T08:07:23;12.02;;;4.82;;
35646;SDS011;28680;45.642;13.756;2023-04-24T08:09:49;15.75;;;5.78;;
35646;SDS011;28680;45.642;13.756;2023-04-24T08:12:15;11.00;;;5.60;;
35646;SDS011;28680;45.642;13.756;2023-04-24T08:14:41;9.60;;;5.22;;
35646;SDS011;28680;45.642;13.756;2023-04-24T08:17:07;14.82;;;5.30;;
35646;SDS011;28680;45.642;13.756;2023-04-24T08:19:32;14.02;;;6.03;;
35646;SDS011;28680;45.642;13.756;2023-04-24T08:21:58;10.43;;;5.43;;
35646;SDS011;28680;45.642;13.756;2023-04-24T08:24:24;13.77;;;5.22;;
35646;SDS011;28680;45.642;13.756;2023-04-24T08:26:50;9.30;;;5.15;;
35646;SDS011;28680;45.642;13.756;2023-04-24T08:29:18;9.73;;;4.85;;
35646;SDS011;28680;45.642;13.756;2023-04-24T08:31:45;8.85;;;5.07;;
35646;SDS011;28680;45.642;13.756;2023-04-24T08:34:11;7.38;;;5.10;;
35646;SDS011;28680;45.642;13.756;2023-04-24T08:36:37;10.50;;;5.13;;
35646;SDS011;28680;45.642;13.756;2023-04-24T08:39:03;9.95;;;5.85;;
35646;SDS011;28680;45.642;13.756;2023-04-24T08:41:29;9.15;;;4.75;;
35646;SDS011;28680;45.642;13.756;2023-04-24T08:43:55;8.40;;;5.03;;
35646;SDS011;28680;45.642;13.756;2023-04-24T08:46:23;11.02;;;5.45;;
35646;SDS011;28680;45.642;13.756;2023-04-24T08:48:50;9.57;;;5.20;;
35646;SDS011;28680;45.642;13.756;2023-04-24T08:51:17;9.10;;;4.35;;
35646;SDS011;28680;45.642;13.756;2023-04-24T08:53:43;5.88;;;4.13;;
35646;SDS011;28680;45.642;13.756;2023-04-24T08:56:11;9.43;;;4.60;;
35646;SDS011;28680;45.642;13.756;2023-04-24T08:58:37;8.80;;;4.65;;
35646;SDS011;28680;45.642;13.756;2023-04-24T09:01:04;8.57;;;3.95;;
35646;SDS011;28680;45.642;13.756;2023-04-24T09:03:30;7.82;;;4.32;;
35646;SDS011;28680;45.642;13.756;2023-04-24T09:05:58;5.72;;;3.90;;
35646;SDS011;28680;45.642;13.756;2023-04-24T09:08:25;7.00;;;4.10;;
35646;SDS011;28680;45.642;13.756;2023-04-24T09:10:53;5.20;;;3.40;;
35646;SDS011;28680;45.642;13.756;2023-04-24T09:13:21;7.57;;;4.28;;
35646;SDS011;28680;45.642;13.756;2023-04-24T09:15:48;8.18;;;3.83;;
35646;SDS011;28680;45.642;13.756;2023-04-24T09:18:13;5.97;;;3.63;;
35646;SDS011;28680;45.642;13.756;2023-04-24T09:23:32;6.35;;;3.85;;
35646;SDS011;28680;45.642;13.756;2023-04-24T09:25:58;6.90;;;3.40;;
35646;SDS011;28680;45.642;13.756;2023-04-24T09:28:45;6.05;;;2.88;;
35646;SDS011;28680;45.642;13.756;2023-04-24T09:31:15;6.28;;;3.20;;
35646;SDS011;28680;45.642;13.756;2023-04-24T09:33:59;4.32;;;2.92;;
35646;SDS011;28680;45.642;13.756;2023-04-24T09:36:32;7.00;;;3.30;;
35646;SDS011;28680;45.642;13.756;2023-04-24T09:39:10;4.75;;;3.15;;
35646;SDS011;28680;45.642;13.756;2023-04-24T09:41:54;10.18;;;3.53;;
35646;SDS011;28680;45.642;13.756;2023-04-24T09:44:26;8.15;;;3.08;;
35646;SDS011;28680;45.642;13.756;2023-04-24T09:46:53;6.75;;;3.65;;
35646;SDS011;28680;45.642;13.756;2023-04-24T09:49:29;6.47;;;4.25;;
35646;SDS011;28680;45.642;13.756;2023-04-24T09:52:04;6.70;;;3.45;;
35646;SDS011;28680;45.642;13.756;2023-04-24T09:54:35;5.18;;;3.40;;
35646;SDS011;28680;45.642;13.756;2023-04-24T09:57:02;4.50;;;3.03;;
35646;SDS011;28680;45.642;13.756;2023-04-24T09:59:29;5.18;;;2.88;;
35646;SDS011;28680;45.642;13.756;2023-04-24T10:01:55;5.57;;;2.97;;
35646;SDS011;28680;45.642;13.756;2023-04-24T10:04:27;6.93;;;3.45;;
35646;SDS011;28680;45.642;13.756;2023-04-24T10:06:55;6.93;;;2.90;;
35646;SDS011;28680;45.642;13.756;2023-04-24T10:09:23;6.65;;;2.88;;
35646;SDS011;28680;45.642;13.756;2023-04-24T10:11:52;4.88;;;2.80;;
35646;SDS011;28680;45.642;13.756;2023-04-24T10:14:21;4.93;;;2.58;;
35646;SDS011;28680;45.642;13.756;2023-04-24T10:16:52;3.47;;;2.33;;
35646;SDS011;28680;45.642;13.756;2023-04-24T10:19:20;6.45;;;2.40;;
35646;SDS011;28680;45.642;13.756;2023-04-24T10:21:46;4.47;;;2.40;;
35646;SDS011;28680;45.642;13.756;2023-04-24T10:24:16;4.45;;;2.72;;
35646;SDS011;28680;45.642;13.756;2023-04-24T10:26:44;6.03;;;2.40;;
35646;SDS011;28680;45.642;13.756;2023-04-24T10:29:11;2.92;;;2.03;;
35646;SDS011;28680;45.642;13.756;2023-04-24T10:31:40;6.25;;;2.20;;
35646;SDS011;28680;45.642;13.756;2023-04-24T10:34:06;4.95;;;2.10;;
35646;SDS011;28680;45.642;13.756;2023-04-24T10:36:34;7.20;;;2.30;;
35646;SDS011;28680;45.642;13.756;2023-04-24T10:39:08;5.97;;;2.20;;
35646;SDS011;28680;45.642;13.756;2023-04-24T10:41:39;3.20;;;2.20;;
35646;SDS011;28680;45.642;13.756;2023-04-24T10:44:06;4.88;;;2.03;;
35646;SDS011;28680;45.642;13.756;2023-04-24T10:46:34;2.60;;;1.77;;
35646;SDS011;28680;45.642;13.756;2023-04-24T10:49:05;4.53;;;2.35;;
35646;SDS011;28680;45.642;13.756;2023-04-24T10:51:47;5.75;;;2.47;;
35646;SDS011;28680;45.642;13.756;2023-04-24T10:54:21;7.90;;;2.72;;
35646;SDS011;28680;45.642;13.756;2023-04-24T10:56:51;3.55;;;2.42;;
35646;SDS011;28680;45.642;13.756;2023-04-24T10:59:24;3.30;;;2.10;;
35646;SDS011;28680;45.642;13.756;2023-04-24T11:01:59;6.45;;;2.33;;
35646;SDS011;28680;45.642;13.756;2023-04-24T11:04:32;4.30;;;2.80;;
35646;SDS011;28680;45.642;13.756;2023-04-24T11:09:27;5.97;;;3.00;;
35646;SDS011;28680;45.642;13.756;2023-04-24T11:12:16;5.32;;;2.58;;
35646;SDS011;28680;45.642;13.756;2023-04-24T11:17:30;5.63;;;2.85;;
35646;SDS011;28680;45.642;13.756;2023-04-24T11:20:03;5.18;;;2.63;;
35646;SDS011;28680;45.642;13.756;2023-04-24T11:22:35;6.35;;;3.60;;
35646;SDS011;28680;45.642;13.756;2023-04-24T11:25:05;4.90;;;2.90;;
35646;SDS011;28680;45.642;13.756;2023-04-24T11:27:37;6.60;;;4.10;;
35646;SDS011;28680;45.642;13.756;2023-04-24T11:30:08;6.22;;;3.30;;
35646;SDS011;28680;45.642;13.756;2023-04-24T11:35:07;7.88;;;3.30;;
35646;SDS011;28680;45.642;13.756;2023-04-24T11:37:41;5.60;;;3.10;;
35646;SDS011;28680;45.642;13.756;2023-04-24T11:40:15;9.75;;;3.90;;
35646;SDS011;28680;45.642;13.756;2023-04-24T11:42:44;11.25;;;3.92;;
35646;SDS011;28680;45.642;13.756;2023-04-24T11:45:13;8.85;;;4.30;;
35646;SDS011;28680;45.642;13.756;2023-04-24T11:47:46;13.35;;;4.95;;
35646;SDS011;28680;45.642;13.756;2023-04-24T11:50:16;7.32;;;3.58;;
35646;SDS011;28680;45.642;13.756;2023-04-24T11:52:44;6.63;;;3.83;;
35646;SDS011;28680;45.642;13.756;2023-04-24T11:57:40;11.25;;;4.25;;
35646;SDS011;28680;45.642;13.756;2023-04-24T12:00:14;7.80;;;3.92;;
35646;SDS011;28680;45.642;13.756;2023-04-24T12:02:53;12.05;;;3.90;;
35646;SDS011;28680;45.642;13.756;2023-04-24T12:05:36;8.80;;;3.55;;
35646;SDS011;28680;45.642;13.756;2023-04-24T12:08:03;10.40;;;3.67;;
35646;SDS011;28680;45.642;13.756;2023-04-24T12:10:30;6.88;;;3.55;;
35646;SDS011;28680;45.642;13.756;2023-04-24T12:12:58;7.18;;;3.42;;
35646;SDS011;28680;45.642;13.756;2023-04-24T12:15:25;6.47;;;3.30;;
35646;SDS011;28680;45.642;13.756;2023-04-24T12:17:52;5.20;;;2.95;;
35646;SDS011;28680;45.642;13.756;2023-04-24T12:20:30;8.77;;;3.30;;
35646;SDS011;28680;45.642;13.756;2023-04-24T12:22:58;6.55;;;2.60;;
35646;SDS011;28680;45.642;13.756;2023-04-24T12:25:26;6.60;;;2.88;;
35646;SDS011;28680;45.642;13.756;2023-04-24T12:30:28;5.95;;;2.88;;
35646;SDS011;28680;45.642;13.756;2023-04-24T12:33:00;7.28;;;2.80;;
35646;SDS011;28680;45.642;13.756;2023-04-24T12:35:28;6.30;;;2.75;;
35646;SDS011;28680;45.642;13.756;2023-04-24T12:38:05;13.63;;;3.17;;
35646;SDS011;28680;45.642;13.756;2023-04-24T12:40:33;8.70;;;3.00;;
35646;SDS011;28680;45.642;13.756;2023-04-24T12:42:59;12.00;;;3.47;;
35646;SDS011;28680;45.642;13.756;2023-04-24T12:45:24;13.43;;;2.97;;
35646;SDS011;28680;45.642;13.756;2023-04-24T12:47:52;12.70;;;3.22;;
35646;SDS011;28680;45.642;13.756;2023-04-24T12:50:18;11.38;;;2.50;;
35646;SDS011;28680;45.642;13.756;2023-04-24T12:52:44;9.82;;;3.53;;
35646;SDS011;28680;45.642;13.756;2023-04-24T12:55:10;13.35;;;3.33;;
35646;SDS011;28680;45.642;13.756;2023-04-24T12:57:37;12.40;;;2.90;;
35646;SDS011;28680;45.642;13.756;2023-04-24T13:00:05;13.20;;;3.25;;
35646;SDS011;28680;45.642;13.756;2023-04-24T13:02:33;12.98;;;3.50;;
35646;SDS011;28680;45.642;13.756;2023-04-24T13:04:59;8.65;;;2.97;;
35646;SDS011;28680;45.642;13.756;2023-04-24T13:07:26;9.00;;;3.08;;
35646;SDS011;28680;45.642;13.756;2023-04-24T13:09:54;5.82;;;1.90;;
35646;SDS011;28680;45.642;13.756;2023-04-24T13:12:21;5.70;;;1.30;;
35646;SDS011;28680;45.642;13.756;2023-04-24T13:14:49;5.32;;;1.40;;
35646;SDS011;28680;45.642;13.756;2023-04-24T13:17:14;3.70;;;1.30;;
35646;SDS011;28680;45.642;13.756;2023-04-24T13:19:41;3.47;;;1.10;;
35646;SDS011;28680;45.642;13.756;2023-04-24T13:22:09;2.42;;;0.90;;
35646;SDS011;28680;45.642;13.756;2023-04-24T13:24:37;0.60;;;0.52;;
35646;SDS011;28680;45.642;13.756;2023-04-24T13:27:05;2.40;;;0.80;;
35646;SDS011;28680;45.642;13.756;2023-04-24T13:29:31;1.50;;;0.80;;
35646;SDS011;28680;45.642;13.756;2023-04-24T13:31:57;1.17;;;0.88;;
35646;SDS011;28680;45.642;13.756;2023-04-24T13:34:23;1.98;;;0.80;;
35646;SDS011;28680;45.642;13.756;2023-04-24T13:36:50;3.75;;;1.52;;
35646;SDS011;28680;45.642;13.756;2023-04-24T13:39:21;1.55;;;0.70;;
35646;SDS011;28680;45.642;13.756;2023-04-24T13:41:48;1.50;;;0.80;;
35646;SDS011;28680;45.642;13.756;2023-04-24T13:44:14;1.20;;;0.68;;
35646;SDS011;28680;45.642;13.756;2023-04-24T13:46:43;4.30;;;0.80;;
35646;SDS011;28680;45.642;13.756;2023-04-24T13:49:13;3.03;;;1.10;;
35646;SDS011;28680;45.642;13.756;2023-04-24T13:51:40;3.95;;;1.00;;
35646;SDS011;28680;45.642;13.756;2023-04-24T13:54:07;1.25;;;0.88;;
35646;SDS011;28680;45.642;13.756;2023-04-24T13:56:33;2.00;;;0.82;;
35646;SDS011;28680;45.642;13.756;2023-04-24T13:58:59;1.85;;;0.70;;
35646;SDS011;28680;45.642;13.756;2023-04-24T14:01:25;1.42;;;0.80;;
35646;SDS011;28680;45.642;13.756;2023-04-24T14:03:52;1.30;;;0.80;;
35646;SDS011;28680;45.642;13.756;2023-04-24T14:06:19;1.92;;;0.70;;
35646;SDS011;28680;45.642;13.756;2023-04-24T14:08:46;3.08;;;0.80;;
35646;SDS011;28680;45.642;13.756;2023-04-24T14:11:13;2.08;;;1.00;;
35646;SDS011;28680;45.642;13.756;2023-04-24T14:13:40;1.65;;;0.90;;
35646;SDS011;28680;45.642;13.756;2023-04-24T14:16:07;1.45;;;0.70;;
35646;SDS011;28680;45.642;13.756;2023-04-24T14:18:33;1.90;;;0.80;;
35646;SDS011;28680;45.642;13.756;2023-04-24T14:20:59;1.77;;;0.73;;
35646;SDS011;28680;45.642;13.756;2023-04-24T14:23:26;0.93;;;0.57;;
35646;SDS011;28680;45.642;13.756;2023-04-24T14:25:56;1.58;;;0.80;;
35646;SDS011;28680;45.642;13.756;2023-04-24T14:28:23;1.08;;;0.60;;
35646;SDS011;28680;45.642;13.756;2023-04-24T14:30:50;2.67;;;0.75;;
35646;SDS011;28680;45.642;13.756;2023-04-24T14:33:16;1.50;;;0.60;;
35646;SDS011;28680;45.642;13.756;2023-04-24T14:35:42;2.63;;;0.70;;
35646;SDS011;28680;45.642;13.756;2023-04-24T14:38:08;1.30;;;0.68;;
35646;SDS011;28680;45.642;13.756;2023-04-24T14:40:34;1.15;;;0.85;;
35646;SDS011;28680;45.642;13.756;2023-04-24T14:43:00;1.42;;;0.70;;
35646;SDS011;28680;45.642;13.756;2023-04-24T14:45:26;2.63;;;1.10;;
35646;SDS011;28680;45.642;13.756;2023-04-24T14:47:52;0.77;;;0.70;;